Time;durP1;ratioP1;P1;durP2;ratioP2;P2;SDS_P1;SDS_P2;PMS_P1;PMS_P2;Temp;Humidity;BMP_temperature;BMP_pressure;BME280_temperature;BME280_humidity;BME280_pressure;Samples;Min_cycle;Max_cycle;Signal;HPM_P1;HPM_P2
2023/08/19 00:00:27;;;;;;;5.38;4.22;;;25.00;58.70;;;26.60;44.59;97530.63;5030508;28;20478;-62
2023/08/19 00:02:55;;;;;;;7.38;3.53;;;25.00;58.90;;;26.56;45.06;97530.31;5030878;28;20513;-62
2023/08/19 00:05:23;;;;;;;8.70;4.38;;;25.00;58.80;;;26.53;44.85;97525.38;5031090;28;20056;-61
2023/08/19 00:07:51;;;;;;;7.00;3.40;;;24.90;58.80;;;26.49;44.62;97532.47;5030756;28;20045;-62
2023/08/19 00:10:19;;;;;;;10.18;4.40;;;24.90;59.00;;;26.48;45.09;97520.75;5022508;28;20050;-62
2023/08/19 00:12:46;;;;;;;4.55;3.80;;;24.90;59.00;;;26.47;44.96;97527.28;5030553;28;20042;-62
2023/08/19 00:15:14;;;;;;;5.65;4.15;;;25.00;58.90;;;26.46;45.09;97522.06;5029947;28;20042;-62
2023/08/19 00:17:41;;;;;;;5.75;3.80;;;25.00;58.60;;;26.42;45.47;97521.78;5029376;28;20042;-62
2023/08/19 00:20:10;;;;;;;6.15;3.80;;;24.90;58.60;;;26.39;45.45;97525.06;5028991;28;20053;-62
2023/08/19 00:22:38;;;;;;;7.75;3.63;;;24.90;59.00;;;26.37;45.45;97524.50;5030535;28;20057;-62
2023/08/19 00:25:06;;;;;;;5.80;3.40;;;24.80;59.30;;;26.37;45.60;97518.22;5030663;28;20070;-61
2023/08/19 00:27:34;;;;;;;7.47;3.58;;;24.80;59.30;;;26.34;45.26;97516.84;5030487;28;20049;-61
2023/08/19 00:30:03;;;;;;;5.68;4.03;;;24.70;59.60;;;26.30;45.70;97513.00;5028659;28;20059;-61
2023/08/19 00:32:31;;;;;;;4.93;3.67;;;24.70;59.70;;;26.28;45.41;97518.72;5045625;28;20045;-62
2023/08/19 00:34:59;;;;;;;9.32;4.85;;;24.60;59.90;;;26.25;45.45;97521.16;5032874;28;20513;-61
2023/08/19 00:37:27;;;;;;;5.00;3.83;;;24.70;60.10;;;26.23;45.33;97516.00;5032349;28;20060;-62
2023/08/19 00:39:55;;;;;;;10.70;4.10;;;24.60;60.10;;;26.19;45.46;97522.22;5032656;28;20421;-61
2023/08/19 00:42:23;;;;;;;4.95;3.97;;;24.50;60.20;;;26.15;45.81;97523.84;5033239;28;20053;-63
2023/08/19 00:44:52;;;;;;;4.57;3.83;;;24.60;60.00;;;26.10;46.03;97517.28;5032676;28;20049;-62
2023/08/19 00:47:20;;;;;;;5.72;3.53;;;24.70;59.90;;;26.11;45.51;97524.38;5032010;28;20513;-62
2023/08/19 00:49:49;;;;;;;8.45;4.55;;;24.70;59.80;;;26.12;45.50;97530.66;5016579;28;20053;-62
2023/08/19 00:52:18;;;;;;;6.82;3.35;;;24.70;59.70;;;26.11;45.54;97524.38;5032237;28;20061;-61
2023/08/19 00:54:46;;;;;;;6.65;4.30;;;24.60;59.80;;;26.09;46.04;97521.09;5032083;28;20053;-61
2023/08/19 00:57:13;;;;;;;6.68;3.55;;;24.50;60.10;;;26.10;45.93;97521.91;5031964;28;20057;-61
2023/08/19 00:59:42;;;;;;;7.63;4.20;;;24.50;60.10;;;26.10;45.71;97527.38;5032373;28;20425;-61
2023/08/19 01:02:10;;;;;;;7.30;4.75;;;24.40;60.30;;;26.07;45.66;97520.53;5015727;28;20053;-61
2023/08/19 01:04:37;;;;;;;5.75;3.22;;;24.50;60.40;;;26.05;45.81;97516.44;5032767;28;20045;-61
2023/08/19 01:10:50;;;;;;;4.32;3.10;;;24.40;60.20;;;26.01;45.93;97516.13;5033056;28;20052;-61
2023/08/19 01:13:24;;;;;;;5.65;3.60;;;24.40;60.40;;;26.03;45.59;97511.22;5033366;28;20049;-62
2023/08/19 01:15:59;;;;;;;5.63;3.88;;;24.40;60.20;;;26.03;45.61;97513.94;5016429;28;20049;-61
2023/08/19 01:18:27;;;;;;;5.25;3.75;;;24.40;59.70;;;26.02;45.61;97512.31;5008090;28;20050;-61
2023/08/19 01:20:55;;;;;;;4.90;3.45;;;24.40;59.90;;;26.00;45.95;97505.47;5032383;28;20053;-61
2023/08/19 01:23:33;;;;;;;6.70;3.95;;;24.40;59.90;;;26.00;45.99;97510.94;5032477;28;20068;-61
2023/08/19 01:26:01;;;;;;;9.18;4.50;;;24.40;60.20;;;25.95;46.11;97509.00;5016353;28;20053;-61
2023/08/19 01:28:29;;;;;;;6.63;3.40;;;24.40;60.60;;;25.89;46.34;97508.13;5015251;28;20424;-61
2023/08/19 01:30:57;;;;;;;4.32;3.90;;;24.20;60.80;;;25.87;46.10;97507.56;5031549;28;20041;-61
2023/08/19 01:33:25;;;;;;;6.47;3.53;;;24.20;61.40;;;25.82;46.13;97515.69;5014951;28;20417;-61
2023/08/19 01:36:10;;;;;;;5.53;3.83;;;24.10;61.90;;;25.79;46.29;97510.78;5033073;28;20033;-61
2023/08/19 01:39:05;;;;;;;6.00;4.20;;;24.10;62.30;;;25.70;46.33;97507.72;5025476;28;20052;-61
2023/08/19 01:41:34;;;;;;;7.30;4.03;;;23.90;63.10;;;25.67;47.14;97502.00;5031315;28;20045;-61
2023/08/19 01:44:02;;;;;;;7.40;3.75;;;23.90;63.20;;;25.63;46.91;97509.03;5031360;28;20049;-61
2023/08/19 01:46:30;;;;;;;4.50;3.50;;;23.80;63.60;;;25.59;47.03;97510.63;5031535;28;20042;-61
2023/08/19 01:49:00;;;;;;;6.60;3.80;;;23.80;63.60;;;25.54;47.12;97504.06;5032283;28;20044;-61
2023/08/19 01:51:30;;;;;;;4.10;3.50;;;23.80;63.10;;;25.56;46.94;97514.72;5024561;28;20394;-61
2023/08/19 01:53:58;;;;;;;4.13;3.70;;;23.90;62.60;;;25.56;46.42;97512.00;5031337;28;20041;-62
2023/08/19 01:56:25;;;;;;;4.95;3.70;;;23.90;62.00;;;25.55;46.34;97507.59;5031758;28;20421;-61
2023/08/19 01:58:54;;;;;;;5.13;3.33;;;23.90;61.70;;;25.54;46.56;97512.25;5031138;28;20501;-61
2023/08/19 02:01:23;;;;;;;8.95;4.30;;;24.00;61.20;;;25.54;46.58;97512.25;5030913;28;20053;-62
2023/08/19 02:03:50;;;;;;;5.97;3.30;;;24.00;61.00;;;25.56;46.13;97511.19;5033147;28;20042;-61
2023/08/19 02:06:18;;;;;;;4.68;3.20;;;24.00;60.50;;;25.54;45.93;97506.78;5030714;28;20050;-61
2023/08/19 02:08:45;;;;;;;6.50;3.28;;;24.10;60.30;;;25.55;45.84;97510.34;5031681;28;20041;-61
2023/08/19 02:11:13;;;;;;;6.72;3.22;;;24.10;59.90;;;25.55;45.75;97504.88;5031271;28;20049;-61
2023/08/19 02:13:42;;;;;;;4.88;2.97;;;24.10;59.70;;;25.56;46.00;97512.00;5030643;28;20038;-61
2023/08/19 02:16:10;;;;;;;6.15;3.20;;;24.20;59.40;;;25.53;45.54;97507.06;5032143;28;20043;-61
2023/08/19 02:18:37;;;;;;;3.08;2.78;;;24.10;59.10;;;25.54;46.16;97514.16;5030839;28;20493;-61
2023/08/19 02:21:05;;;;;;;5.22;3.33;;;24.20;59.10;;;25.53;46.11;97502.44;5030660;28;20390;-61
2023/08/19 02:23:33;;;;;;;6.57;3.17;;;24.10;59.30;;;25.53;46.23;97512.50;5031934;28;20041;-61
2023/08/19 02:26:00;;;;;;;5.68;3.40;;;24.10;59.60;;;25.50;46.20;97515.78;5032006;28;20041;-61
2023/08/19 02:28:28;;;;;;;6.75;4.55;;;24.00;60.00;;;25.46;46.48;97515.47;5030827;28;20045;-61
2023/08/19 02:31:02;;;;;;;4.90;3.60;;;24.00;60.30;;;25.44;46.00;97511.38;5031642;28;20041;-61
2023/08/19 02:33:30;;;;;;;8.48;3.38;;;24.00;60.40;;;25.43;46.41;97512.44;5029405;28;20041;-62
2023/08/19 02:35:58;;;;;;;8.45;3.42;;;24.00;60.20;;;25.40;46.54;97502.06;5032150;28;20052;-61
2023/08/19 02:38:25;;;;;;;4.95;3.80;;;24.00;60.00;;;25.35;46.18;97506.38;5030132;28;22220;-62
2023/08/19 02:40:53;;;;;;;5.75;3.13;;;24.00;60.20;;;25.33;46.36;97502.28;5030073;28;20037;-61
2023/08/19 02:43:21;;;;;;;6.65;3.42;;;23.90;60.40;;;25.30;46.39;97506.34;5030149;28;20076;-61
2023/08/19 02:45:49;;;;;;;5.70;3.15;;;23.90;60.30;;;25.28;46.47;97503.06;5031927;28;20052;-61
2023/08/19 02:48:16;;;;;;;5.25;3.38;;;23.90;60.60;;;25.29;46.19;97504.69;5031286;28;20054;-61
2023/08/19 02:50:44;;;;;;;5.30;3.60;;;23.80;60.30;;;25.28;46.39;97500.34;5030344;28;20042;-61
2023/08/19 02:53:12;;;;;;;4.28;2.92;;;23.80;60.30;;;25.29;46.20;97512.06;5029960;28;20072;-61
2023/08/19 02:55:41;;;;;;;3.38;3.08;;;23.80;60.30;;;25.28;46.57;97515.84;5046145;28;20041;-61
2023/08/19 02:58:09;;;;;;;6.80;3.65;;;23.80;60.20;;;25.26;46.22;97518.84;5030043;28;20037;-61
2023/08/19 03:00:37;;;;;;;4.10;3.00;;;23.80;60.30;;;25.25;46.42;97517.19;5029403;28;20053;-62
2023/08/19 03:03:08;;;;;;;4.57;3.40;;;23.70;60.50;;;25.26;46.46;97518.84;5030172;28;20045;-61
2023/08/19 03:05:39;;;;;;;6.57;3.42;;;23.70;60.50;;;25.27;46.07;97514.22;5022349;28;20501;-61
2023/08/19 03:08:09;;;;;;;3.97;3.25;;;23.80;60.30;;;25.27;46.23;97514.22;5029818;28;20057;-61
2023/08/19 03:10:40;;;;;;;4.38;3.75;;;23.80;60.10;;;25.29;46.42;97522.94;5023297;28;20056;-61
2023/08/19 03:13:08;;;;;;;5.40;3.17;;;23.80;60.00;;;25.28;46.10;97518.56;5030133;28;20049;-61
2023/08/19 03:15:38;;;;;;;4.45;3.55;;;23.80;60.20;;;25.27;46.30;97512.31;5030091;28;20037;-61
2023/08/19 03:18:06;;;;;;;3.90;2.92;;;23.70;60.40;;;25.26;46.15;97512.56;5029943;28;20045;-61
2023/08/19 03:20:34;;;;;;;6.03;3.55;;;23.70;60.40;;;25.22;46.54;97517.72;5022574;28;20042;-61
2023/08/19 03:23:02;;;;;;;5.68;3.45;;;23.70;60.50;;;25.22;46.25;97511.41;5030296;28;20050;-62
2023/08/19 03:25:30;;;;;;;4.63;2.75;;;23.70;60.70;;;25.21;46.69;97512.50;5029879;28;20057;-61
2023/08/19 03:27:58;;;;;;;4.50;3.33;;;23.70;60.80;;;25.19;46.30;97515.47;5029913;28;20045;-61
2023/08/19 03:30:26;;;;;;;7.63;3.70;;;23.70;60.80;;;25.20;46.31;97514.38;5029090;28;20080;-61
2023/08/19 03:32:54;;;;;;;5.63;3.50;;;23.70;60.70;;;25.16;46.86;97510.53;5028174;28;20076;-61
2023/08/19 03:35:21;;;;;;;8.27;4.07;;;23.70;60.90;;;25.15;46.69;97512.44;5030942;28;20045;-61
2023/08/19 03:37:49;;;;;;;4.63;3.10;;;23.70;60.90;;;25.14;46.86;97510.81;5029363;28;20045;-61
2023/08/19 03:40:17;;;;;;;5.47;3.22;;;23.80;60.90;;;25.14;46.96;97505.38;5029111;28;20057;-61
2023/08/19 03:42:44;;;;;;;6.03;3.63;;;23.80;61.00;;;25.11;46.83;97502.34;5030749;28;20034;-61
2023/08/19 03:45:12;;;;;;;8.55;3.83;;;23.70;61.10;;;25.11;46.80;97508.59;5029733;28;20041;-61
2023/08/19 03:47:39;;;;;;;7.32;3.47;;;23.70;62.10;;;25.11;47.12;97510.50;5023153;28;20044;-61
2023/08/19 03:50:07;;;;;;;6.82;4.20;;;23.70;61.20;;;25.08;47.24;97503.66;5013456;28;20041;-61
2023/08/19 03:52:35;;;;;;;4.55;3.30;;;23.70;61.30;;;25.09;46.97;97505.31;5030635;28;20052;-61
2023/08/19 03:55:03;;;;;;;5.45;3.47;;;23.70;61.50;;;25.09;47.10;97509.94;5030849;28;20360;-61
2023/08/19 03:57:31;;;;;;;4.93;3.83;;;23.70;61.70;;;25.09;47.29;97509.94;5013178;28;20049;-61
2023/08/19 03:59:59;;;;;;;7.05;3.63;;;23.70;61.70;;;25.08;47.46;97517.28;5029401;28;20052;-61
2023/08/19 04:02:27;;;;;;;5.82;3.88;;;23.70;62.10;;;25.09;47.69;97521.66;5028727;28;20049;-61
2023/08/19 04:05:03;;;;;;;4.68;3.28;;;23.60;62.30;;;25.10;47.40;97520.56;5029227;28;20049;-61
2023/08/19 04:07:35;;;;;;;5.53;3.90;;;23.60;62.70;;;25.10;47.48;97525.19;5032422;28;20531;-61
2023/08/19 04:10:03;;;;;;;6.22;3.55;;;23.50;62.90;;;25.06;47.47;97522.16;5034539;28;20048;-61
2023/08/19 04:12:32;;;;;;;6.15;3.60;;;23.40;63.30;;;25.02;47.62;97521.03;5016844;28;20053;-61
2023/08/19 04:14:59;;;;;;;5.95;3.45;;;23.40;63.60;;;24.99;47.68;97521.56;5032650;28;20492;-61
2023/08/19 04:17:27;;;;;;;5.97;3.30;;;23.30;63.80;;;24.97;47.92;97512.81;5032733;28;20497;-61
2023/08/19 04:19:55;;;;;;;6.25;3.42;;;23.30;64.10;;;24.95;47.95;97512.25;5033563;28;20065;-61
2023/08/19 04:22:23;;;;;;;5.20;3.40;;;23.30;64.30;;;24.93;47.92;97514.41;5033533;28;20045;-61
2023/08/19 04:24:52;;;;;;;5.35;3.45;;;23.30;64.10;;;24.91;48.16;97508.38;5034377;28;20089;-61
2023/08/19 04:27:22;;;;;;;5.40;3.97;;;23.40;63.80;;;24.90;47.66;97502.13;5033055;28;20053;-61
2023/08/19 04:29:50;;;;;;;4.22;3.20;;;23.40;63.10;;;24.86;48.13;97508.34;5032657;28;20497;-61
2023/08/19 04:32:18;;;;;;;7.75;4.40;;;23.50;63.10;;;24.74;48.37;97508.50;5032420;28;20076;-61
2023/08/19 04:34:47;;;;;;;9.45;4.18;;;23.50;63.10;;;24.71;48.71;97509.00;5016986;28;20049;-61
2023/08/19 04:37:14;;;;;;;5.07;3.70;;;23.50;63.50;;;24.73;48.45;97510.38;5034188;28;20512;-61
2023/08/19 04:39:43;;;;;;;4.97;3.35;;;23.50;64.20;;;24.76;48.87;97520.78;5032599;28;20064;-61
2023/08/19 04:42:21;;;;;;;4.03;3.60;;;23.50;63.70;;;24.76;48.71;97515.31;5032902;28;20050;-61
2023/08/19 04:44:49;;;;;;;8.07;4.22;;;23.40;63.80;;;24.76;48.39;97526.22;5034025;28;20052;-61
2023/08/19 04:47:17;;;;;;;6.60;3.80;;;23.40;64.00;;;24.79;48.38;97521.34;5032592;28;20128;-61
2023/08/19 04:49:46;;;;;;;7.00;4.50;;;23.40;64.10;;;24.81;48.59;97521.91;5025173;28;20536;-61
2023/08/19 04:52:15;;;;;;;5.55;3.90;;;23.30;64.30;;;24.81;48.35;97521.91;5032152;28;20052;-61
2023/08/19 04:54:43;;;;;;;8.15;3.72;;;23.20;64.40;;;24.80;48.31;97515.66;5032169;28;20042;-61
2023/08/19 04:57:11;;;;;;;6.57;3.58;;;23.20;64.40;;;24.79;48.26;97524.06;5032695;28;20048;-61
2023/08/19 04:59:38;;;;;;;5.03;3.63;;;23.30;64.30;;;24.79;48.11;97534.94;5031873;28;20053;-61
2023/08/19 05:02:08;;;;;;;6.43;3.85;;;23.30;64.30;;;24.77;48.35;97532.47;5033261;28;20040;-61
2023/08/19 05:04:35;;;;;;;5.85;3.75;;;23.30;64.30;;;24.79;48.75;97538.47;5033621;28;20049;-60
2023/08/19 05:07:03;;;;;;;4.55;4.13;;;23.30;64.60;;;24.81;48.64;97538.25;5031935;28;20054;-61
2023/08/19 05:09:32;;;;;;;6.07;4.55;;;23.30;64.80;;;24.79;48.59;97537.66;5031254;28;20425;-60
2023/08/19 05:12:00;;;;;;;4.63;3.90;;;23.30;64.80;;;24.76;48.80;97531.66;5015997;28;20049;-61
2023/08/19 05:14:28;;;;;;;7.63;3.95;;;23.30;64.90;;;24.75;48.68;97534.63;5032460;28;20050;-60
2023/08/19 05:16:56;;;;;;;6.15;4.15;;;23.20;64.80;;;24.72;48.74;97533.25;5031828;28;20041;-61
2023/08/19 05:19:24;;;;;;;5.75;4.28;;;23.10;65.30;;;24.71;48.75;97539.75;5026510;28;20429;-60
2023/08/19 05:21:52;;;;;;;7.80;4.47;;;23.20;65.50;;;24.70;49.13;97532.69;5031735;28;20544;-60
2023/08/19 05:24:20;;;;;;;7.25;4.47;;;23.20;65.80;;;24.70;48.81;97537.31;5032929;28;20420;-61
2023/08/19 05:26:48;;;;;;;4.32;3.70;;;23.20;65.50;;;24.63;48.95;97531.25;5016964;28;20041;-61
2023/08/19 05:29:16;;;;;;;4.93;3.42;;;23.20;65.20;;;24.56;49.18;97536.84;5031854;28;20516;-61
2023/08/19 05:31:44;;;;;;;5.45;4.10;;;23.20;65.10;;;24.52;49.15;97541.16;5031943;28;20545;-61
2023/08/19 05:34:11;;;;;;;5.50;3.75;;;23.20;65.20;;;24.52;49.17;97541.16;5031600;28;20048;-61
2023/08/19 05:36:39;;;;;;;5.85;3.97;;;23.10;65.40;;;24.52;49.33;97546.59;5033009;28;20046;-61
2023/08/19 05:39:07;;;;;;;7.28;3.80;;;23.20;65.70;;;24.56;49.53;97550.47;5032876;28;20052;-61
2023/08/19 05:41:35;;;;;;;4.25;3.65;;;23.10;65.70;;;24.62;49.45;97554.06;5033035;28;20037;-61
2023/08/19 05:44:03;;;;;;;8.27;4.72;;;23.20;65.60;;;24.65;49.38;97550.84;5032791;28;20512;-61
2023/08/19 05:46:31;;;;;;;7.65;3.90;;;23.30;65.50;;;24.68;49.41;97564.78;5032714;28;20064;-61
2023/08/19 05:48:58;;;;;;;6.78;4.25;;;23.30;65.10;;;24.70;49.63;97551.75;5032417;28;20041;-61
2023/08/19 05:51:27;;;;;;;7.53;4.10;;;23.40;65.20;;;24.75;49.38;97559.94;5032535;28;20053;-61
2023/08/19 05:53:59;;;;;;;6.75;3.75;;;23.40;65.10;;;24.79;49.42;97559.44;5031553;28;20045;-61
2023/08/19 05:56:27;;;;;;;5.78;3.28;;;23.40;65.20;;;24.80;49.37;97558.38;5031448;28;20454;-61
2023/08/19 05:58:55;;;;;;;5.95;3.53;;;23.40;65.60;;;24.84;49.47;97559.50;5032240;28;20068;-61
2023/08/19 06:01:23;;;;;;;5.03;3.95;;;23.50;65.60;;;24.85;49.31;97564.69;5030717;28;20052;-61
2023/08/19 06:03:51;;;;;;;7.43;4.50;;;23.50;65.70;;;24.88;49.26;97566.91;5023054;28;20044;-61
2023/08/19 06:06:19;;;;;;;4.32;3.83;;;23.50;65.70;;;24.89;49.71;97567.72;5032267;28;20045;-61
2023/08/19 06:08:46;;;;;;;5.90;4.35;;;23.50;65.70;;;24.91;49.65;97568.28;5030860;28;20447;-61
2023/08/19 06:11:14;;;;;;;7.68;3.50;;;23.50;65.70;;;24.94;49.53;97576.78;5032249;28;20497;-61
2023/08/19 06:13:41;;;;;;;7.13;4.45;;;23.60;65.60;;;24.99;49.62;97577.91;5032203;28;20041;-61
2023/08/19 06:16:09;;;;;;;7.63;4.43;;;23.60;65.80;;;25.04;49.62;97586.13;5030916;28;20209;-61
2023/08/19 06:18:37;;;;;;;6.15;3.67;;;23.60;65.60;;;25.08;49.41;97579.09;5032095;28;20049;-61
2023/08/19 06:21:05;;;;;;;4.72;3.95;;;23.70;65.80;;;25.13;49.62;97582.69;5031707;28;20512;-61
2023/08/19 06:23:32;;;;;;;5.55;3.42;;;23.80;65.90;;;25.19;49.44;97586.28;5032025;28;20413;-61
2023/08/19 06:26:00;;;;;;;4.55;3.75;;;23.80;65.30;;;25.22;49.09;97585.81;5047363;28;20046;-61
2023/08/19 06:28:28;;;;;;;6.30;4.07;;;23.90;65.00;;;25.27;48.99;97588.59;5031925;28;20056;-61
2023/08/19 06:30:56;;;;;;;7.05;3.97;;;23.90;64.80;;;25.29;49.25;97585.59;5030450;28;20167;-61
2023/08/19 06:33:27;;;;;;;4.72;3.53;;;24.00;64.60;;;25.31;49.11;97595.16;5031277;28;20056;-61
2023/08/19 06:35:57;;;;;;;8.82;4.07;;;24.10;64.60;;;25.38;49.13;97596.84;5023943;28;20052;-62
2023/08/19 06:38:30;;;;;;;6.65;4.80;;;24.10;64.30;;;25.42;49.24;97589.81;5032087;28;20046;-61
2023/08/19 06:41:11;;;;;;;10.05;4.90;;;24.20;64.20;;;25.48;49.21;97595.06;5023784;28;20056;-61
2023/08/19 06:43:40;;;;;;;7.38;3.90;;;24.30;64.10;;;25.56;48.73;97603.84;5031857;28;20046;-61
2023/08/19 06:46:08;;;;;;;5.22;4.15;;;24.30;64.00;;;25.62;49.29;97603.63;5030705;28;20045;-61
2023/08/19 06:48:36;;;;;;;6.13;3.80;;;24.40;64.60;;;25.67;49.04;97602.84;5029718;28;20057;-62
2023/08/19 06:51:04;;;;;;;5.35;4.45;;;24.50;64.70;;;25.71;48.81;97612.97;5031379;28;20048;-61
2023/08/19 06:53:32;;;;;;;8.20;4.22;;;24.50;64.40;;;25.76;48.93;97612.19;5030318;28;20057;-61
2023/08/19 06:56:24;;;;;;;5.32;4.32;;;24.60;64.30;;;25.80;49.02;97620.66;5032152;28;20544;-62
2023/08/19 06:59:01;;;;;;;7.85;4.10;;;24.60;64.70;;;25.84;48.87;97614.44;5030144;28;20037;-61
2023/08/19 07:01:30;;;;;;;9.35;5.13;;;24.60;63.50;;;25.87;48.67;97603.00;5031464;28;20048;-61
2023/08/19 07:03:59;;;;;;;6.80;3.95;;;24.70;63.20;;;25.92;48.62;97602.28;5023618;28;20054;-61
2023/08/19 07:06:31;;;;;;;5.97;3.83;;;24.70;63.00;;;25.95;48.32;97620.81;5030384;28;20050;-62
2023/08/19 07:09:01;;;;;;;4.00;3.60;;;24.80;62.90;;;25.97;48.64;97615.09;5030078;28;20052;-62
2023/08/19 07:11:28;;;;;;;9.63;4.18;;;24.80;62.90;;;25.99;48.75;97618.41;5031129;28;20057;-61
2023/08/19 07:13:57;;;;;;;4.85;4.10;;;24.90;63.00;;;26.02;48.29;97621.44;5031425;28;20489;-62
2023/08/19 07:16:28;;;;;;;6.38;3.80;;;24.90;62.90;;;26.07;48.58;97626.09;5031297;28;20049;-62
2023/08/19 07:19:01;;;;;;;7.00;3.97;;;24.90;63.20;;;26.10;48.44;97631.03;5014239;28;20057;-62
2023/08/19 07:21:31;;;;;;;6.25;4.38;;;24.90;62.80;;;26.18;48.01;97635.19;5029978;28;20041;-62
2023/08/19 07:24:00;;;;;;;6.97;4.20;;;25.00;62.40;;;26.21;48.30;97635.47;5030957;28;20041;-61
2023/08/19 07:26:30;;;;;;;5.00;3.92;;;25.10;62.30;;;26.25;47.83;97628.41;5013931;28;20046;-61
2023/08/19 07:28:59;;;;;;;5.93;4.60;;;25.10;62.00;;;26.30;47.64;97636.59;5029817;28;20057;-62
2023/08/19 07:31:27;;;;;;;6.35;4.38;;;25.20;61.70;;;26.36;47.60;97632.00;5031141;28;20076;-61
2023/08/19 07:33:55;;;;;;;8.07;4.45;;;25.30;61.50;;;26.41;47.42;97634.78;5031054;28;20041;-61
2023/08/19 07:36:22;;;;;;;6.53;3.90;;;25.30;61.20;;;26.45;47.33;97633.16;5030910;28;20041;-61
2023/08/19 07:38:50;;;;;;;5.75;3.90;;;25.30;62.00;;;26.50;47.20;97641.38;5029797;28;20412;-61
2023/08/19 07:41:21;;;;;;;5.75;3.60;;;25.40;60.60;;;26.55;47.14;97640.59;5031721;28;20042;-61
2023/08/19 07:43:49;;;;;;;8.10;4.53;;;25.50;60.40;;;26.62;47.54;97637.63;5035452;28;20046;-61
2023/08/19 07:46:17;;;;;;;4.93;4.28;;;25.50;60.40;;;26.68;47.00;97644.78;5035058;28;20053;-61
2023/08/19 07:48:45;;;;;;;5.78;4.35;;;25.60;60.30;;;26.74;47.09;97651.09;5034839;28;20068;-61
2023/08/19 07:51:13;;;;;;;5.20;3.40;;;25.70;59.50;;;26.78;47.29;97650.28;5035316;28;20045;-61
2023/08/19 07:53:41;;;;;;;7.95;4.78;;;25.70;59.90;;;26.83;46.66;97660.41;5035022;28;20046;-61
2023/08/19 07:56:08;;;;;;;6.22;4.22;;;25.70;59.70;;;26.88;46.93;97654.97;5034806;28;20041;-62
2023/08/19 07:58:36;;;;;;;7.82;3.75;;;25.80;59.40;;;26.92;46.72;97654.16;5034592;28;20041;-61
2023/08/19 08:01:04;;;;;;;4.60;3.42;;;25.80;59.00;;;26.98;46.28;97660.47;5034406;28;20494;-61
2023/08/19 08:03:32;;;;;;;6.00;3.70;;;25.90;58.70;;;27.04;46.22;97658.59;5035068;28;20049;-61
2023/08/19 08:06:00;;;;;;;6.65;4.28;;;25.90;58.50;;;27.08;46.58;97652.34;5034827;28;20527;-61
2023/08/19 08:08:28;;;;;;;4.70;4.28;;;25.90;58.70;;;27.13;46.36;97656.16;5034548;28;20046;-60
2023/08/19 08:10:55;;;;;;;5.78;4.30;;;26.00;59.40;;;27.20;46.42;97656.72;5033139;28;20049;-61
2023/08/19 08:13:24;;;;;;;8.30;4.50;;;26.10;59.30;;;27.27;46.12;97654.59;5034745;28;20045;-61
2023/08/19 08:15:53;;;;;;;4.47;3.67;;;26.20;58.80;;;27.33;45.81;97656.25;5034468;28;20041;-61
2023/08/19 08:18:21;;;;;;;7.10;4.57;;;26.20;58.30;;;27.40;45.72;97658.75;5034979;28;20050;-61
2023/08/19 08:20:48;;;;;;;5.03;3.95;;;26.30;58.10;;;27.45;45.52;97658.72;5034064;28;20448;-61
2023/08/19 08:23:16;;;;;;;6.80;4.22;;;26.30;57.80;;;27.51;45.54;97654.94;5033614;28;20045;-61
2023/08/19 08:25:43;;;;;;;9.07;5.18;;;26.40;58.50;;;27.59;45.57;97648.13;5034307;28;20072;-61
2023/08/19 08:28:11;;;;;;;6.07;4.07;;;26.50;57.40;;;27.65;45.06;97649.75;5034462;28;20045;-61
2023/08/19 08:30:38;;;;;;;8.40;3.60;;;26.50;57.30;;;27.71;45.41;97642.38;5033969;28;20413;-61
2023/08/19 08:33:08;;;;;;;5.35;4.10;;;26.60;57.30;;;27.77;45.13;97644.03;5034474;28;20045;-61
2023/08/19 08:35:35;;;;;;;5.25;4.75;;;26.70;57.10;;;27.84;44.96;97637.19;5034255;28;20049;-61
2023/08/19 08:38:04;;;;;;;6.30;4.47;;;26.80;56.70;;;27.90;44.48;97646.25;5034139;28;20049;-60
2023/08/19 08:40:31;;;;;;;5.72;4.53;;;26.80;56.20;;;27.98;44.18;97642.97;5033828;28;20093;-60
2023/08/19 08:43:02;;;;;;;9.77;4.97;;;26.90;55.80;;;28.04;44.35;97650.06;5034219;28;20053;-60
2023/08/19 08:45:31;;;;;;;11.57;4.80;;;27.00;56.50;;;28.11;44.48;97643.50;5034288;28;20425;-61
2023/08/19 08:48:00;;;;;;;7.30;4.60;;;27.00;56.50;;;28.16;44.48;97648.97;5032915;28;20508;-60
2023/08/19 08:50:29;;;;;;;6.13;4.80;;;27.10;56.20;;;28.21;43.97;97654.44;5048483;28;20053;-61
2023/08/19 08:52:58;;;;;;;9.07;4.45;;;27.20;55.60;;;28.25;44.08;97656.34;5032847;28;20046;-61
2023/08/19 08:55:26;;;;;;;6.35;4.38;;;27.20;55.60;;;28.30;43.89;97655.50;5032808;28;20050;-61
2023/08/19 08:57:54;;;;;;;6.55;4.05;;;27.20;55.40;;;28.35;43.18;97646.47;5032791;28;20120;-61
2023/08/19 09:00:22;;;;;;;9.23;4.25;;;27.30;54.60;;;28.41;43.18;97651.66;5033790;28;20042;-60
2023/08/19 09:02:53;;;;;;;4.88;4.38;;;27.30;54.60;;;28.46;43.01;97656.31;5033497;28;20056;-61
2023/08/19 09:05:24;;;;;;;5.60;4.07;;;27.40;54.10;;;28.50;42.99;97656.56;5017303;28;20052;-60
2023/08/19 09:07:54;;;;;;;12.07;4.45;;;27.40;53.80;;;28.54;42.49;97653.03;5032546;28;20049;-60
2023/08/19 09:10:26;;;;;;;9.80;4.72;;;27.50;53.10;;;28.62;42.24;97654.41;5016082;28;20409;-60
2023/08/19 09:13:00;;;;;;;8.30;5.93;;;27.50;52.90;;;28.68;42.30;97653.28;5032198;28;20057;-60
2023/08/19 09:15:31;;;;;;;8.32;4.40;;;27.60;52.70;;;28.75;42.11;97659.28;5033750;28;20061;-61
2023/08/19 09:18:00;;;;;;;5.75;4.28;;;27.60;52.60;;;28.78;41.49;97655.16;5033482;28;20053;-61
2023/08/19 09:20:31;;;;;;;5.45;4.40;;;27.70;52.30;;;28.81;42.05;97658.16;5048567;28;20493;-61
2023/08/19 09:23:07;;;;;;;7.15;4.20;;;27.70;52.50;;;28.88;41.61;97655.13;5033513;28;20394;-61
2023/08/19 09:25:39;;;;;;;6.35;3.80;;;27.80;51.20;;;28.92;41.25;97653.47;5033732;28;20049;-61
2023/08/19 09:28:07;;;;;;;5.75;4.60;;;27.90;51.30;;;28.98;41.37;97657.00;5033365;28;20037;-62
2023/08/19 09:30:35;;;;;;;5.72;3.90;;;27.90;51.40;;;29.07;41.25;97655.31;5032875;28;20053;-63
2023/08/19 09:33:03;;;;;;;6.97;3.97;;;28.00;51.70;;;29.14;41.00;97657.78;5033376;28;20046;-62
2023/08/19 09:35:37;;;;;;;8.07;4.32;;;28.00;51.20;;;29.20;40.50;97660.22;5033457;28;20045;-62
2023/08/19 09:38:26;;;;;;;7.03;4.18;;;28.20;49.40;;;29.29;40.42;97671.41;5025996;28;20064;-61
2023/08/19 09:41:03;;;;;;;11.15;4.95;;;28.40;50.10;;;29.34;40.60;97673.31;5032680;28;20051;-62
2023/08/19 09:43:31;;;;;;;6.85;3.80;;;28.40;49.70;;;29.39;40.82;97670.53;5032915;28;20046;-62
2023/08/19 09:46:00;;;;;;;6.05;4.65;;;28.40;50.60;;;29.43;42.40;97674.38;5031705;28;20497;-62
2023/08/19 09:48:28;;;;;;;8.35;5.53;;;28.50;52.80;;;29.46;42.64;97671.03;5032959;28;20046;-63
2023/08/19 09:50:56;;;;;;;9.05;5.15;;;28.50;53.40;;;29.48;42.53;97668.03;5032359;28;20048;-62
2023/08/19 09:53:29;;;;;;;6.97;5.18;;;28.60;53.30;;;29.53;42.96;97668.81;5032960;28;20155;-62
2023/08/19 09:55:57;;;;;;;9.40;4.90;;;28.70;52.80;;;29.57;42.64;97666.31;5031719;28;20045;-62
2023/08/19 09:58:25;;;;;;;6.05;4.82;;;28.70;53.10;;;29.58;42.77;97671.50;5032818;28;20049;-62
2023/08/19 10:00:53;;;;;;;6.75;4.88;;;28.70;52.90;;;29.59;42.48;97667.69;5032016;28;20049;-62
2023/08/19 10:03:21;;;;;;;6.38;4.88;;;28.80;52.40;;;29.66;42.96;97675.56;5032861;28;20041;-62
2023/08/19 10:05:54;;;;;;;6.97;4.53;;;28.90;52.50;;;29.73;42.17;97676.09;5022941;28;20053;-61
2023/08/19 10:08:25;;;;;;;8.65;5.25;;;29.00;52.60;;;29.79;41.70;97666.72;5032610;28;20050;-61
2023/08/19 10:10:53;;;;;;;5.60;5.10;;;29.00;52.50;;;29.86;41.38;97669.16;5030997;28;20041;-62
2023/08/19 10:13:23;;;;;;;7.75;5.15;;;29.00;51.20;;;29.92;40.90;97667.22;5032762;28;20291;-62
2023/08/19 10:15:56;;;;;;;5.75;4.45;;;29.20;50.90;;;29.97;41.19;97678.13;5030927;28;20053;-62
2023/08/19 10:18:30;;;;;;;7.07;4.47;;;29.20;50.70;;;30.03;41.59;97677.81;5031043;28;20509;-62
2023/08/19 10:21:04;;;;;;;5.75;4.43;;;29.20;51.50;;;30.12;40.71;97675.25;5031867;28;20041;-62
2023/08/19 10:23:35;;;;;;;7.13;4.50;;;29.30;50.20;;;30.20;40.59;97673.81;5031278;28;20041;-62
2023/08/19 10:26:03;;;;;;;8.90;5.28;;;29.30;50.40;;;30.25;40.01;97671.03;5030577;28;20049;-62
2023/08/19 10:28:30;;;;;;;7.05;3.95;;;29.50;49.10;;;30.35;40.26;97675.66;5031431;28;20053;-63
2023/08/19 10:31:05;;;;;;;5.90;4.22;;;29.60;49.10;;;30.41;40.18;97661.56;5031708;28;20037;-62